Airfield :







YOU CAN JOIN US ON...

 
LOGIN :

Register | Disclaimer

   EN    FR    IT 

 









Legend :    VFR   Marginal VFR   IFR   Intensive IFR   Very Intensive IFR
Visi :
Ceiling :
>= 8 km
>= 3000ft
5 to 8 km
1000 to 3000 ft
1500m to 5 km
500 to 1000 ft
800 to 1500m
200 to 500 ft
< 800m
< 200 ft
Symbols :   Thunderstorms  Fog  Heavy snow  Heavy precipitations  Wind > 20 kt






- Airport Elevation : 1188 ft


KCDA - Caledonia County

CURRENT METAR :
  • 270455Z AUTO 09006KT 10SM BKN048 OVC070 04/M02 A2981 RMK AO2 T00361020 400430000

EXPIRED METARs :
  • 270436Z AUTO 08004KT 10SM OVC048 04/M02 A2983 RMK AO2 T00381020
  • 270415Z AUTO 08011KT 10SM OVC048 04/M02 A2984 RMK AO2 T00391020
  • 270355Z AUTO 09010G16KT 10SM OVC046 04/M02 A2985 RMK AO2 T00431020
  • 270335Z AUTO 07011G15KT 10SM OVC046 04/M02 A2986 RMK AO2 T00381016
  • 270315Z AUTO 08008KT 10SM OVC044 04/M01 A2987 RMK AO2 T00421015
  • 270256Z AUTO 07008KT 10SM OVC044 04/M01 A2986 RMK AO2 T00391013
  • 270236Z AUTO 08007KT 10SM OVC044 04/M01 A2988 RMK AO2 T00421013
  • 270215Z AUTO 10006KT 10SM OVC046 04/M01 A2989 RMK AO2 T00381012

TAF N/A



MET'MAP, your aeronautical weather chart ! - Copyright ORBIFLY December 2007 - Disclaimer

ORBIFLY MET'MAP TEAM :

Programming & Development : Alexandra Zaïnal
Concept & original design : Baudouin d'Aumeries
Assistance for programming : Marc-Olivier Méhu
Technical & hardware support : Manuel Goepfert

Contact : metmap@orbifly.com




SOURCES & CREDITS :

   NOAA